createdAt,value
2022-08-28T00:01:57.723Z,7.53
2022-08-28T00:04:24.920Z,7.30
2022-08-28T00:06:51.940Z,7.47
2022-08-28T00:09:19.039Z,7.15
2022-08-28T00:11:47.315Z,7.32
2022-08-28T00:14:14.561Z,8.43
2022-08-28T00:16:42.231Z,8.15
2022-08-28T00:19:11.002Z,7.70
2022-08-28T00:21:38.319Z,7.82
2022-08-28T00:24:05.324Z,8.88
2022-08-28T00:26:51.160Z,7.68
2022-08-28T00:29:18.001Z,8.77
2022-08-28T00:31:45.079Z,7.68
2022-08-28T00:34:12.540Z,7.88
2022-08-28T00:36:41.481Z,8.20
2022-08-28T00:39:09.623Z,8.25
2022-08-28T00:41:41.197Z,7.87
2022-08-28T00:44:19.076Z,7.88
2022-08-28T00:46:49.557Z,8.00
2022-08-28T00:49:21.207Z,7.30
2022-08-28T00:52:11.831Z,7.72
2022-08-28T00:54:59.510Z,7.30
2022-08-28T00:57:41.006Z,8.48
2022-08-28T01:00:14.099Z,9.23
2022-08-28T01:02:41.198Z,6.82
2022-08-28T01:05:09.840Z,7.72
2022-08-28T01:07:38.136Z,7.95
2022-08-28T01:10:09.682Z,7.82
2022-08-28T01:12:37.252Z,6.85
2022-08-28T01:15:14.046Z,7.55
2022-08-28T01:17:48.073Z,8.48
2022-08-28T01:20:19.692Z,7.63
2022-08-28T01:23:14.203Z,7.65
2022-08-28T01:25:42.585Z,8.90
2022-08-28T01:28:12.676Z,7.47
2022-08-28T01:30:45.406Z,8.48
2022-08-28T01:33:14.852Z,7.95
2022-08-28T01:35:45.812Z,8.25
2022-08-28T01:38:12.857Z,7.95
2022-08-28T01:40:48.908Z,7.70
2022-08-28T01:45:47.507Z,8.30
2022-08-28T01:48:16.124Z,7.60
2022-08-28T01:50:44.020Z,8.33
2022-08-28T01:53:15.719Z,7.68
2022-08-28T01:55:44.028Z,7.50
2022-08-28T01:58:12.271Z,7.78
2022-08-28T02:00:40.038Z,7.30
2022-08-28T02:03:07.152Z,7.40
2022-08-28T02:05:34.989Z,7.63
2022-08-28T02:08:04.951Z,7.57
2022-08-28T02:10:34.016Z,7.95
2022-08-28T02:13:01.527Z,8.32
2022-08-28T02:15:30.565Z,7.50
2022-08-28T02:17:58.281Z,8.00
2022-08-28T02:20:25.730Z,7.28
2022-08-28T02:22:53.031Z,7.32
2022-08-28T02:25:20.124Z,7.97
2022-08-28T02:27:47.015Z,8.43
2022-08-28T02:30:15.457Z,8.10
2022-08-28T02:32:44.451Z,7.82
2022-08-28T02:35:13.326Z,8.20
2022-08-28T02:37:44.344Z,8.00
2022-08-28T02:43:08.643Z,7.97
2022-08-28T02:45:36.150Z,7.85
2022-08-28T02:48:03.319Z,9.32
2022-08-28T02:50:31.567Z,7.78
2022-08-28T02:52:58.746Z,8.50
2022-08-28T02:55:25.832Z,8.07
2022-08-28T02:57:53.002Z,9.52
2022-08-28T03:00:23.604Z,7.28
2022-08-28T03:02:51.248Z,7.18
2022-08-28T03:05:21.125Z,6.97
2022-08-28T03:07:49.415Z,8.25
2022-08-28T03:10:16.431Z,7.57
2022-08-28T03:12:43.585Z,7.30
2022-08-28T03:15:11.406Z,7.97
2022-08-28T03:17:39.146Z,7.43
2022-08-28T03:20:09.532Z,6.82
2022-08-28T03:22:55.535Z,8.18
2022-08-28T03:25:23.291Z,7.55
2022-08-28T03:27:50.875Z,6.85
2022-08-28T03:30:18.970Z,7.78
2022-08-28T03:32:45.934Z,7.93
2022-08-28T03:35:13.316Z,8.02
2022-08-28T03:37:40.409Z,7.50
2022-08-28T03:40:08.791Z,7.85
2022-08-28T03:42:36.076Z,7.20
2022-08-28T03:45:05.504Z,7.68
2022-08-28T03:47:32.339Z,7.50
2022-08-28T03:50:00.319Z,6.93
2022-08-28T03:52:27.258Z,7.82
2022-08-28T03:54:54.361Z,10.13
2022-08-28T03:57:22.600Z,7.53
2022-08-28T03:59:51.574Z,6.80
2022-08-28T04:02:20.661Z,7.25
2022-08-28T04:07:18.966Z,6.95
2022-08-28T04:09:46.970Z,6.93
2022-08-28T04:12:15.261Z,7.05
2022-08-28T04:14:42.295Z,7.22
2022-08-28T04:17:10.009Z,6.85
2022-08-28T04:19:38.078Z,7.75
2022-08-28T04:22:04.940Z,6.85
2022-08-28T04:24:31.786Z,5.65
2022-08-28T04:26:58.979Z,5.53
2022-08-28T04:29:25.918Z,5.93
2022-08-28T04:31:53.118Z,6.05
2022-08-28T04:34:20.223Z,5.90
2022-08-28T04:36:50.121Z,7.10
2022-08-28T04:39:17.224Z,7.40
2022-08-28T04:41:44.310Z,7.15
2022-08-28T04:44:11.203Z,7.75
2022-08-28T04:46:38.624Z,7.82
2022-08-28T04:49:06.029Z,7.55
2022-08-28T04:51:33.432Z,7.07
2022-08-28T04:54:02.633Z,7.47
2022-08-28T04:56:29.822Z,7.00
2022-08-28T04:58:56.691Z,6.97
2022-08-28T05:01:24.945Z,7.50
2022-08-28T05:03:57.906Z,7.25
2022-08-28T05:06:29.289Z,7.05
2022-08-28T05:08:59.164Z,7.88
2022-08-28T05:11:33.762Z,7.23
2022-08-28T05:14:15.914Z,7.57
2022-08-28T05:16:53.046Z,7.43
2022-08-28T05:19:21.239Z,7.47
2022-08-28T05:21:49.422Z,6.63
2022-08-28T05:24:16.283Z,6.65
2022-08-28T05:26:43.330Z,7.40
2022-08-28T05:29:11.240Z,7.30
2022-08-28T05:31:40.376Z,9.48
2022-08-28T05:36:36.755Z,9.35
2022-08-28T05:39:07.179Z,10.10
2022-08-28T05:41:34.764Z,8.63
2022-08-28T05:44:04.866Z,8.15
2022-08-28T05:46:32.379Z,7.88
2022-08-28T05:49:00.573Z,7.57
2022-08-28T05:51:28.576Z,6.38
2022-08-28T05:53:57.768Z,7.10
2022-08-28T05:56:31.047Z,7.38
2022-08-28T05:59:00.193Z,6.25
2022-08-28T06:01:33.876Z,6.30
2022-08-28T06:04:03.472Z,6.57
2022-08-28T06:06:34.489Z,6.38
2022-08-28T06:09:08.758Z,6.50
2022-08-28T06:11:36.025Z,6.85
2022-08-28T06:14:04.567Z,6.70
2022-08-28T06:16:32.578Z,6.13
2022-08-28T06:19:00.770Z,6.85
2022-08-28T06:21:29.421Z,6.38
2022-08-28T06:23:56.475Z,6.30
2022-08-28T06:26:23.991Z,6.82
2022-08-28T06:28:53.169Z,6.25
2022-08-28T06:31:24.548Z,6.10
2022-08-28T06:33:57.837Z,5.90
2022-08-28T06:36:27.612Z,6.70
2022-08-28T06:38:58.235Z,7.40
2022-08-28T06:41:26.590Z,6.32
2022-08-28T06:43:54.134Z,7.22
2022-08-28T06:46:22.049Z,6.45
2022-08-28T06:48:49.014Z,6.70
2022-08-28T06:51:15.850Z,7.57
2022-08-28T06:53:44.650Z,7.88
2022-08-28T06:56:25.709Z,7.97
2022-08-28T06:58:56.826Z,7.55
2022-08-28T07:01:33.022Z,6.43
2022-08-28T07:04:09.054Z,7.78
2022-08-28T07:06:38.999Z,7.28
2022-08-28T07:09:08.540Z,7.07
2022-08-28T07:11:36.777Z,8.38
2022-08-28T07:14:04.954Z,6.32
2022-08-28T07:16:35.539Z,6.00
2022-08-28T07:19:05.013Z,6.28
2022-08-28T07:21:36.930Z,6.07
2022-08-28T07:24:07.102Z,6.45
2022-08-28T07:26:34.972Z,5.70
2022-08-28T07:31:44.058Z,6.40
2022-08-28T07:34:12.504Z,6.40
2022-08-28T07:39:08.022Z,6.32
2022-08-28T07:41:39.058Z,5.93
2022-08-28T07:44:26.420Z,6.70
2022-08-28T07:46:55.634Z,6.07
2022-08-28T07:49:23.393Z,6.00
2022-08-28T07:51:50.239Z,6.00
2022-08-28T07:54:22.614Z,6.30
2022-08-28T07:56:50.768Z,6.43
2022-08-28T07:59:19.431Z,6.50
2022-08-28T08:04:16.373Z,6.70
2022-08-28T08:06:44.289Z,6.55
2022-08-28T08:09:14.692Z,6.63
2022-08-28T08:11:42.760Z,6.10
2022-08-28T08:14:10.107Z,6.60
2022-08-28T08:16:39.755Z,6.07
2022-08-28T08:19:10.123Z,6.10
2022-08-28T08:21:37.533Z,5.63
2022-08-28T08:24:05.272Z,5.53
2022-08-28T08:26:33.695Z,5.75
2022-08-28T08:29:01.093Z,5.50
2022-08-28T08:31:32.728Z,5.40
2022-08-28T08:34:03.620Z,5.97
2022-08-28T08:36:32.792Z,9.35
2022-08-28T08:39:00.736Z,7.03
2022-08-28T08:41:48.427Z,6.25
2022-08-28T08:44:40.895Z,6.05
2022-08-28T08:47:19.497Z,6.20
2022-08-28T08:49:52.455Z,5.82
2022-08-28T08:52:44.062Z,5.55
2022-08-28T08:55:25.954Z,5.13
2022-08-28T08:58:16.625Z,5.75
2022-08-28T09:00:52.784Z,5.32
2022-08-28T09:03:25.176Z,4.88
2022-08-28T09:05:56.955Z,4.80
2022-08-28T09:08:30.835Z,4.90
2022-08-28T09:11:07.150Z,5.32
2022-08-28T09:13:37.013Z,6.00
2022-08-28T09:16:13.030Z,5.20
2022-08-28T09:18:40.554Z,4.60
2022-08-28T09:21:07.370Z,4.43
2022-08-28T09:23:34.326Z,4.68
2022-08-28T09:26:09.349Z,5.03
2022-08-28T09:31:20.074Z,4.53
2022-08-28T09:33:51.352Z,5.43
2022-08-28T09:36:34.459Z,5.57
2022-08-28T09:39:32.073Z,4.97
2022-08-28T09:42:32.768Z,4.40
2022-08-28T09:44:59.890Z,4.45
2022-08-28T09:47:46.271Z,4.78
2022-08-28T09:50:21.565Z,4.90
2022-08-28T09:52:49.689Z,4.30
2022-08-28T09:55:33.567Z,5.15
2022-08-28T09:58:01.330Z,5.38
2022-08-28T10:00:34.201Z,5.05
2022-08-28T10:03:14.598Z,5.40
2022-08-28T10:05:58.343Z,4.82
2022-08-28T10:08:57.667Z,4.80
2022-08-28T10:11:34.225Z,5.28
2022-08-28T10:14:15.125Z,5.35
2022-08-28T10:17:25.230Z,4.88
2022-08-28T10:20:14.070Z,4.63
2022-08-28T10:23:01.295Z,5.07
2022-08-28T10:25:44.184Z,5.78
2022-08-28T10:28:24.092Z,5.05
2022-08-28T10:30:56.128Z,4.68
2022-08-28T10:33:45.745Z,5.43
2022-08-28T10:36:33.973Z,5.85
2022-08-28T10:39:12.296Z,3.85
2022-08-28T10:41:55.832Z,4.97
2022-08-28T10:44:41.405Z,4.53
2022-08-28T10:47:10.243Z,4.13
2022-08-28T10:49:49.088Z,3.72
2022-08-28T10:52:32.427Z,4.43
2022-08-28T10:55:02.203Z,3.75
2022-08-28T10:57:36.117Z,3.22
2022-08-28T11:00:14.637Z,4.00
2022-08-28T11:02:45.988Z,3.38
2022-08-28T11:05:13.512Z,3.50
2022-08-28T11:07:54.472Z,3.50
2022-08-28T11:10:36.493Z,3.60
2022-08-28T11:13:06.368Z,4.15
2022-08-28T11:15:37.109Z,3.50
2022-08-28T11:18:16.447Z,3.45
2022-08-28T11:20:56.272Z,3.33
2022-08-28T11:23:35.403Z,3.80
2022-08-28T11:26:06.600Z,3.72
2022-08-28T11:28:36.462Z,3.60
2022-08-28T11:31:06.275Z,3.72
2022-08-28T11:33:52.985Z,3.30
2022-08-28T11:36:19.939Z,3.67
2022-08-28T11:38:52.918Z,4.78
2022-08-28T11:41:29.493Z,4.38
2022-08-28T11:44:12.608Z,4.03
2022-08-28T11:46:43.468Z,4.05
2022-08-28T11:49:33.646Z,4.00
2022-08-28T11:52:18.104Z,4.38
2022-08-28T11:55:07.020Z,4.47
2022-08-28T11:57:54.274Z,3.92
2022-08-28T12:00:33.034Z,4.10
2022-08-28T12:03:11.263Z,3.80
2022-08-28T12:08:09.011Z,4.20
2022-08-28T12:10:35.806Z,4.38
2022-08-28T12:13:05.356Z,4.22
2022-08-28T12:15:32.405Z,4.35
2022-08-28T12:18:05.711Z,4.38
2022-08-28T12:20:35.704Z,4.60
2022-08-28T12:23:24.728Z,3.88
2022-08-28T12:26:01.767Z,5.13
2022-08-28T12:28:51.940Z,4.40
2022-08-28T12:32:05.235Z,4.38
2022-08-28T12:34:58.181Z,5.00
2022-08-28T12:37:52.278Z,4.85
2022-08-28T12:40:38.332Z,4.63
2022-08-28T12:43:08.126Z,4.30
2022-08-28T12:45:42.796Z,4.53
2022-08-28T12:48:24.438Z,4.55
2022-08-28T12:51:08.579Z,4.25
2022-08-28T12:53:47.550Z,4.25
2022-08-28T12:56:17.890Z,4.68
2022-08-28T12:58:46.045Z,4.47
2022-08-28T13:01:27.490Z,4.03
2022-08-28T13:04:02.005Z,5.25
2022-08-28T13:06:39.147Z,4.10
2022-08-28T13:09:14.238Z,4.10
2022-08-28T13:11:47.320Z,4.65
2022-08-28T13:14:34.332Z,4.40
2022-08-28T13:17:01.300Z,5.00
2022-08-28T13:19:30.946Z,4.60
2022-08-28T13:22:28.530Z,4.85
2022-08-28T13:25:00.430Z,5.03
2022-08-28T13:27:27.680Z,4.10
2022-08-28T13:30:24.692Z,4.82
2022-08-28T13:32:58.155Z,4.50
2022-08-28T13:35:25.125Z,4.45
2022-08-28T13:37:54.531Z,4.93
2022-08-28T13:43:16.360Z,6.63
2022-08-28T13:45:45.951Z,5.82
2022-08-28T13:48:21.129Z,4.75
2022-08-28T13:50:52.799Z,5.13
2022-08-28T13:53:21.454Z,4.70
2022-08-28T13:55:50.762Z,3.60
2022-08-28T13:58:17.945Z,4.53
2022-08-28T14:00:47.435Z,4.80
2022-08-28T14:03:33.468Z,4.90
2022-08-28T14:06:00.835Z,3.50
2022-08-28T14:08:27.626Z,3.60
2022-08-28T14:10:54.520Z,3.53
2022-08-28T14:13:23.354Z,3.20
2022-08-28T14:15:50.293Z,3.60
2022-08-28T14:18:18.207Z,3.20
2022-08-28T14:20:45.360Z,3.08
2022-08-28T14:23:12.559Z,3.13
2022-08-28T14:25:43.960Z,2.67
2022-08-28T14:28:12.089Z,3.28
2022-08-28T14:30:44.017Z,3.08
2022-08-28T14:33:11.288Z,3.15
2022-08-28T14:35:40.772Z,2.80
2022-08-28T14:38:10.598Z,3.47
2022-08-28T14:40:43.197Z,3.15
2022-08-28T14:43:12.041Z,2.50
2022-08-28T14:45:46.860Z,2.70
2022-08-28T14:48:15.004Z,2.72
2022-08-28T14:50:44.064Z,2.67
2022-08-28T14:53:11.151Z,2.90
2022-08-28T14:55:56.163Z,2.75
2022-08-28T14:58:23.000Z,2.83
2022-08-28T15:00:50.883Z,2.60
2022-08-28T15:03:19.723Z,2.53
2022-08-28T15:05:46.565Z,2.40
2022-08-28T15:08:17.226Z,2.60
2022-08-28T15:10:45.003Z,2.78
2022-08-28T15:13:12.803Z,2.55
2022-08-28T15:15:41.347Z,2.47
2022-08-28T15:18:10.324Z,2.80
2022-08-28T15:20:42.940Z,3.17
2022-08-28T15:23:11.517Z,2.45
2022-08-28T15:25:38.483Z,2.58
2022-08-28T15:28:05.847Z,3.22
2022-08-28T15:30:32.813Z,2.90
2022-08-28T15:32:59.921Z,2.63
2022-08-28T15:35:26.984Z,2.70
2022-08-28T15:37:54.264Z,3.72
2022-08-28T15:40:40.178Z,3.85
2022-08-28T15:43:07.416Z,3.92
2022-08-28T15:45:39.261Z,3.53
2022-08-28T15:48:06.911Z,3.78
2022-08-28T15:50:34.230Z,3.15
2022-08-28T15:53:01.847Z,3.95
2022-08-28T15:55:28.952Z,3.80
2022-08-28T15:57:56.295Z,3.25
2022-08-28T16:00:23.500Z,3.47
2022-08-28T16:02:50.319Z,3.33
2022-08-28T16:05:17.487Z,3.58
2022-08-28T16:07:44.945Z,5.10
2022-08-28T16:10:13.807Z,5.60
2022-08-28T16:12:41.116Z,4.97
2022-08-28T16:15:09.448Z,4.95
2022-08-28T16:17:36.327Z,5.33
2022-08-28T16:20:06.700Z,4.28
2022-08-28T16:22:39.539Z,3.58
2022-08-28T16:25:07.598Z,3.03
2022-08-28T16:27:34.436Z,3.20
2022-08-28T16:30:03.391Z,3.15
2022-08-28T16:32:30.540Z,3.33
2022-08-28T16:34:58.355Z,3.47
2022-08-28T16:37:26.128Z,3.13
2022-08-28T16:40:06.674Z,3.80
2022-08-28T16:42:33.573Z,3.72
2022-08-28T16:45:00.687Z,3.85
2022-08-28T16:47:31.742Z,4.28
2022-08-28T16:50:05.927Z,5.43
2022-08-28T16:52:33.118Z,3.78
2022-08-28T16:55:00.083Z,4.85
2022-08-28T16:57:27.587Z,4.68
2022-08-28T16:59:54.674Z,6.30
2022-08-28T17:02:26.694Z,10.77
2022-08-28T17:05:00.490Z,13.45
2022-08-28T17:07:28.476Z,34.28
2022-08-28T17:09:55.661Z,45.83
2022-08-28T17:12:22.615Z,45.80
2022-08-28T17:14:49.724Z,53.58
2022-08-28T17:17:16.591Z,84.35
2022-08-28T17:19:43.421Z,61.00
2022-08-28T17:22:29.354Z,47.25
2022-08-28T17:24:56.259Z,23.58
2022-08-28T17:27:23.357Z,13.25
2022-08-28T17:29:50.688Z,15.27
2022-08-28T17:32:17.669Z,13.68
2022-08-28T17:34:45.246Z,12.23
2022-08-28T17:37:12.137Z,15.93
2022-08-28T17:39:39.128Z,15.23
2022-08-28T17:42:06.299Z,12.45
2022-08-28T17:44:35.329Z,14.27
2022-08-28T17:47:02.415Z,10.35
2022-08-28T17:49:29.574Z,8.98
2022-08-28T17:51:56.485Z,8.77
2022-08-28T17:54:24.459Z,8.05
2022-08-28T17:56:54.474Z,8.32
2022-08-28T17:59:22.803Z,9.55
2022-08-28T18:01:50.099Z,9.70
2022-08-28T18:04:23.918Z,10.63
2022-08-28T18:06:54.478Z,11.90
2022-08-28T18:09:23.534Z,11.48
2022-08-28T18:11:51.122Z,11.85
2022-08-28T18:14:18.100Z,11.43
2022-08-28T18:16:45.144Z,11.48
2022-08-28T18:19:12.082Z,9.45
2022-08-28T18:21:40.425Z,11.32
2022-08-28T18:24:08.563Z,9.10
2022-08-28T18:26:35.395Z,8.93
2022-08-28T18:29:02.216Z,8.43
2022-08-28T18:31:30.773Z,8.70
2022-08-28T18:33:58.350Z,8.20
2022-08-28T18:36:43.530Z,7.85
2022-08-28T18:39:10.886Z,8.50
2022-08-28T18:41:43.492Z,8.05
2022-08-28T18:44:13.531Z,8.57
2022-08-28T18:46:40.643Z,7.70
2022-08-28T18:49:07.556Z,7.43
2022-08-28T18:51:34.615Z,7.47
2022-08-28T18:54:02.955Z,7.00
2022-08-28T18:56:32.165Z,7.25
2022-08-28T18:59:00.688Z,8.15
2022-08-28T19:01:28.464Z,8.32
2022-08-28T19:03:55.643Z,7.40
2022-08-28T19:06:23.412Z,7.20
2022-08-28T19:08:50.290Z,7.68
2022-08-28T19:11:17.817Z,7.43
2022-08-28T19:13:45.036Z,9.25
2022-08-28T19:16:17.316Z,7.97
2022-08-28T19:18:45.815Z,8.57
2022-08-28T19:21:19.679Z,7.30
2022-08-28T19:23:55.986Z,7.75
2022-08-28T19:26:26.937Z,7.60
2022-08-28T19:28:55.173Z,7.50
2022-08-28T19:31:23.014Z,8.23
2022-08-28T19:33:50.768Z,8.32
2022-08-28T19:36:18.664Z,8.45
2022-08-28T19:38:45.821Z,8.25
2022-08-28T19:41:14.544Z,8.10
2022-08-28T19:43:43.414Z,9.35
2022-08-28T19:46:18.600Z,7.47
2022-08-28T19:48:51.797Z,7.88
2022-08-28T19:51:22.661Z,7.45
2022-08-28T19:53:57.280Z,8.30
2022-08-28T19:56:29.953Z,8.45
2022-08-28T19:58:59.332Z,8.23
2022-08-28T20:03:58.182Z,8.70
2022-08-28T20:06:25.662Z,8.85
2022-08-28T20:08:52.507Z,9.02
2022-08-28T20:11:30.298Z,7.90
2022-08-28T20:14:04.048Z,8.20
2022-08-28T20:16:35.326Z,8.57
2022-08-28T20:19:04.001Z,8.20
2022-08-28T20:21:37.078Z,8.05
2022-08-28T20:24:12.077Z,8.90
2022-08-28T20:26:39.575Z,8.00
2022-08-28T20:29:08.598Z,8.27
2022-08-28T20:31:40.496Z,9.68
2022-08-28T20:34:09.239Z,8.40
2022-08-28T20:36:36.232Z,8.57
2022-08-28T20:39:07.182Z,9.27
2022-08-28T20:41:34.859Z,9.27
2022-08-28T20:44:05.040Z,8.18
2022-08-28T20:46:37.045Z,8.80
2022-08-28T20:49:08.111Z,9.00
2022-08-28T20:51:53.349Z,10.13
2022-08-28T20:54:22.197Z,10.52
2022-08-28T20:56:51.026Z,9.63
2022-08-28T20:59:19.504Z,10.90
2022-08-28T21:01:46.733Z,10.20
2022-08-28T21:04:13.603Z,8.82
2022-08-28T21:06:40.463Z,9.77
2022-08-28T21:09:07.474Z,9.48
2022-08-28T21:11:34.333Z,10.30
2022-08-28T21:14:01.133Z,9.82
2022-08-28T21:16:28.278Z,10.05
2022-08-28T21:19:14.636Z,11.23
2022-08-28T21:21:42.857Z,10.18
2022-08-28T21:24:12.219Z,10.13
2022-08-28T21:29:11.395Z,9.02
2022-08-28T21:31:40.919Z,9.13
2022-08-28T21:34:09.520Z,9.40
2022-08-28T21:36:38.221Z,8.95
2022-08-28T21:39:05.949Z,8.30
2022-08-28T21:41:33.096Z,8.32
2022-08-28T21:44:00.333Z,8.70
2022-08-28T21:46:27.874Z,8.93
2022-08-28T21:48:56.305Z,9.18
2022-08-28T21:51:24.693Z,8.85
2022-08-28T21:53:52.966Z,8.93
2022-08-28T21:56:24.085Z,8.45
2022-08-28T21:58:52.569Z,8.50
2022-08-28T22:01:21.168Z,8.40
2022-08-28T22:03:48.089Z,9.52
2022-08-28T22:06:18.517Z,8.68
2022-08-28T22:08:46.744Z,8.60
2022-08-28T22:11:14.247Z,8.43
2022-08-28T22:13:44.223Z,8.48
2022-08-28T22:16:11.381Z,8.95
2022-08-28T22:18:38.318Z,9.10
2022-08-28T22:21:24.902Z,9.00
2022-08-28T22:23:51.728Z,8.98
2022-08-28T22:26:20.726Z,8.38
2022-08-28T22:28:47.880Z,8.77
2022-08-28T22:31:14.855Z,9.65
2022-08-28T22:33:43.093Z,9.40
2022-08-28T22:36:10.938Z,9.27
2022-08-28T22:38:39.681Z,9.43
2022-08-28T22:41:07.667Z,8.68
2022-08-28T22:43:35.335Z,9.68
2022-08-28T22:46:03.916Z,9.48
2022-08-28T22:48:31.506Z,8.65
2022-08-28T22:51:18.351Z,9.18
2022-08-28T22:53:46.818Z,8.10
2022-08-28T22:56:14.600Z,9.05
2022-08-28T22:58:41.699Z,8.75
2022-08-28T23:01:13.959Z,9.60
2022-08-28T23:03:41.268Z,9.15
2022-08-28T23:06:08.385Z,9.57
2022-08-28T23:08:35.492Z,9.73
2022-08-28T23:11:03.180Z,9.52
2022-08-28T23:13:30.898Z,9.85
2022-08-28T23:15:58.399Z,9.18
2022-08-28T23:18:25.503Z,9.35
2022-08-28T23:20:55.340Z,9.23
2022-08-28T23:23:23.844Z,9.07
2022-08-28T23:25:50.766Z,8.80
2022-08-28T23:28:18.445Z,9.43
2022-08-28T23:30:48.475Z,9.73
2022-08-28T23:33:23.737Z,8.70
2022-08-28T23:35:52.120Z,8.73
2022-08-28T23:38:19.526Z,8.90
2022-08-28T23:40:48.267Z,9.00
2022-08-28T23:43:17.963Z,7.55
2022-08-28T23:45:45.106Z,8.15
2022-08-28T23:48:12.349Z,9.35
2022-08-28T23:50:42.195Z,8.65
2022-08-28T23:53:09.854Z,9.07
2022-08-28T23:55:37.422Z,8.35
2022-08-28T23:58:05.379Z,8.57
